Terminal Aerodrome Forecast
Issued by NWS Cleveland, OH

Home | Current Version | Previous Version | Graphics & Text | Print | Product List | Glossary On
Versions: 1 2 3 4 5 6 7 8 9 10 11 12 13 14 15 16 17 18 19 20 21 22 23 24 25 26 27
000
FTUS41 KCLE 171133
TAFCLE
TAF
KCLE 171133Z 1712/1818 16008KT P6SM SCT100 BKN200
     FM171300 20010KT P6SM SCT030 BKN080
      TEMPO 1714/1718 3SM -TSRA OVC030CB
     FM171800 20012G20KT P6SM SCT030 BKN050
      TEMPO 1718/1722 3SM -TSRA OVC030CB
     FM172200 20010G20KT P6SM VCTS SCT040CB BKN060
     FM180200 22008KT P6SM SCT060 BKN200
     FM181400 24015G25KT P6SM BKN040=

USA.gov is the U.S. government's official web portal to all federal, state and local government web resources and services.